sensor_id;sensor_type;location;lat;lon;timestamp;pressure;altitude;pressure_sealevel;temperature;humidity
75219;BME280;63801;49.414;19.474;2022-12-18T00:01:45;94853.22;;;-8.37;75.24
75219;BME280;63801;49.414;19.474;2022-12-18T00:03:46;94883.34;;;-8.28;75.20
75219;BME280;63801;49.414;19.474;2022-12-18T00:05:50;94877.34;;;-8.35;75.17
75219;BME280;63801;49.414;19.474;2022-12-18T00:07:51;94876.34;;;-8.40;75.74
75219;BME280;63801;49.414;19.474;2022-12-18T00:09:51;94867.09;;;-8.49;75.36
75219;BME280;63801;49.414;19.474;2022-12-18T00:11:51;94879.16;;;-8.48;75.22
75219;BME280;63801;49.414;19.474;2022-12-18T00:13:54;94873.97;;;-8.55;75.34
75219;BME280;63801;49.414;19.474;2022-12-18T00:15:54;94893.44;;;-8.51;75.50
75219;BME280;63801;49.414;19.474;2022-12-18T00:17:54;94895.47;;;-8.59;75.58
75219;BME280;63801;49.414;19.474;2022-12-18T00:19:55;94895.28;;;-8.65;75.66
75219;BME280;63801;49.414;19.474;2022-12-18T00:21:55;94901.69;;;-8.67;75.72
75219;BME280;63801;49.414;19.474;2022-12-18T00:23:55;94889.25;;;-8.78;75.75
75219;BME280;63801;49.414;19.474;2022-12-18T00:26:07;94901.72;;;-8.74;75.39
75219;BME280;63801;49.414;19.474;2022-12-18T00:28:09;94895.47;;;-8.86;75.57
75219;BME280;63801;49.414;19.474;2022-12-18T00:30:10;94914.56;;;-8.79;75.31
75219;BME280;63801;49.414;19.474;2022-12-18T00:32:10;94906.53;;;-8.84;75.50
75219;BME280;63801;49.414;19.474;2022-12-18T00:34:11;94915.34;;;-8.85;75.57
75219;BME280;63801;49.414;19.474;2022-12-18T00:36:15;94911.34;;;-8.94;75.33
75219;BME280;63801;49.414;19.474;2022-12-18T00:38:15;94906.31;;;-9.02;75.26
75219;BME280;63801;49.414;19.474;2022-12-18T00:40:16;94920.56;;;-8.98;75.56
75219;BME280;63801;49.414;19.474;2022-12-18T00:42:16;94918.38;;;-9.01;75.54
75219;BME280;63801;49.414;19.474;2022-12-18T00:44:35;94926.19;;;-9.01;75.45
75219;BME280;63801;49.414;19.474;2022-12-18T00:46:35;94926.56;;;-9.11;75.58
75219;BME280;63801;49.414;19.474;2022-12-18T00:48:36;94936.03;;;-9.10;75.67
75219;BME280;63801;49.414;19.474;2022-12-18T00:50:36;94930.22;;;-9.12;75.76
75219;BME280;63801;49.414;19.474;2022-12-18T00:52:36;94928.97;;;-9.16;75.71
75219;BME280;63801;49.414;19.474;2022-12-18T00:54:37;94942.66;;;-9.14;75.69
75219;BME280;63801;49.414;19.474;2022-12-18T00:56:38;94937.63;;;-9.15;75.67
75219;BME280;63801;49.414;19.474;2022-12-18T00:58:38;94937.41;;;-9.20;75.89
75219;BME280;63801;49.414;19.474;2022-12-18T01:00:39;94937.03;;;-9.17;75.75
75219;BME280;63801;49.414;19.474;2022-12-18T01:02:40;94935.19;;;-9.23;75.60
75219;BME280;63801;49.414;19.474;2022-12-18T01:04:40;94926.16;;;-9.27;75.72
75219;BME280;63801;49.414;19.474;2022-12-18T01:06:41;94926.34;;;-9.35;75.70
75219;BME280;63801;49.414;19.474;2022-12-18T01:08:41;94950.06;;;-9.24;75.18
75219;BME280;63801;49.414;19.474;2022-12-18T01:10:42;94948.44;;;-9.31;75.34
75219;BME280;63801;49.414;19.474;2022-12-18T01:12:42;94945.19;;;-9.33;75.72
75219;BME280;63801;49.414;19.474;2022-12-18T01:14:43;94941.16;;;-9.42;75.45
75219;BME280;63801;49.414;19.474;2022-12-18T01:16:43;94945.59;;;-9.36;75.24
75219;BME280;63801;49.414;19.474;2022-12-18T01:18:43;94943.19;;;-9.44;75.30
75219;BME280;63801;49.414;19.474;2022-12-18T01:20:44;94937.13;;;-9.51;75.49
75219;BME280;63801;49.414;19.474;2022-12-18T01:22:44;94941.78;;;-9.47;75.63
75219;BME280;63801;49.414;19.474;2022-12-18T01:24:45;94946.56;;;-9.50;75.76
75219;BME280;63801;49.414;19.474;2022-12-18T01:26:45;94949.16;;;-9.50;75.84
75219;BME280;63801;49.414;19.474;2022-12-18T01:28:46;94950.38;;;-9.53;75.63
75219;BME280;63801;49.414;19.474;2022-12-18T01:30:46;94960.22;;;-9.48;75.67
75219;BME280;63801;49.414;19.474;2022-12-18T01:32:46;94958.22;;;-9.46;75.88
75219;BME280;63801;49.414;19.474;2022-12-18T01:34:47;94968.47;;;-9.45;75.88
75219;BME280;63801;49.414;19.474;2022-12-18T01:36:48;94935.09;;;-9.63;75.63
75219;BME280;63801;49.414;19.474;2022-12-18T01:38:49;94971.25;;;-9.46;75.60
75219;BME280;63801;49.414;19.474;2022-12-18T01:40:57;94980.31;;;-9.42;75.54
75219;BME280;63801;49.414;19.474;2022-12-18T01:42:57;94974.88;;;-9.47;75.69
75219;BME280;63801;49.414;19.474;2022-12-18T01:49:38;94981.88;;;-9.55;75.58
75219;BME280;63801;49.414;19.474;2022-12-18T01:51:38;94977.44;;;-9.61;75.73
75219;BME280;63801;49.414;19.474;2022-12-18T01:53:40;94972.59;;;-9.64;75.76
75219;BME280;63801;49.414;19.474;2022-12-18T01:55:51;94972.38;;;-9.69;75.78
75219;BME280;63801;49.414;19.474;2022-12-18T01:57:56;94992.66;;;-9.64;75.69
75219;BME280;63801;49.414;19.474;2022-12-18T02:00:01;94989.63;;;-9.68;75.80
75219;BME280;63801;49.414;19.474;2022-12-18T02:02:03;94985.81;;;-9.72;75.20
75219;BME280;63801;49.414;19.474;2022-12-18T02:04:20;95001.06;;;-9.69;75.83
75219;BME280;63801;49.414;19.474;2022-12-18T02:06:37;95003.47;;;-9.74;75.78
75219;BME280;63801;49.414;19.474;2022-12-18T02:09:07;94999.03;;;-9.73;75.81
75219;BME280;63801;49.414;19.474;2022-12-18T02:11:17;95000.66;;;-9.72;75.96
75219;BME280;63801;49.414;19.474;2022-12-18T02:13:52;94998.63;;;-9.77;75.96
75219;BME280;63801;49.414;19.474;2022-12-18T02:18:11;95000.81;;;-9.80;76.00
75219;BME280;63801;49.414;19.474;2022-12-18T02:20:35;95010.09;;;-9.71;76.06
75219;BME280;63801;49.414;19.474;2022-12-18T02:27:18;95000.41;;;-9.77;75.88
75219;BME280;63801;49.414;19.474;2022-12-18T02:29:29;95014.91;;;-9.75;75.79
75219;BME280;63801;49.414;19.474;2022-12-18T02:31:36;95015.88;;;-9.76;76.01
75219;BME280;63801;49.414;19.474;2022-12-18T02:33:40;95013.47;;;-9.77;76.00
75219;BME280;63801;49.414;19.474;2022-12-18T02:35:41;95016.88;;;-9.77;75.96
75219;BME280;63801;49.414;19.474;2022-12-18T02:37:44;95005.78;;;-9.85;75.78
75219;BME280;63801;49.414;19.474;2022-12-18T02:39:48;95017.03;;;-9.85;75.55
75219;BME280;63801;49.414;19.474;2022-12-18T02:41:50;95016.00;;;-9.90;76.04
75219;BME280;63801;49.414;19.474;2022-12-18T02:44:06;95012.56;;;-9.91;75.80
75219;BME280;63801;49.414;19.474;2022-12-18T02:46:27;95008.94;;;-9.96;76.04
75219;BME280;63801;49.414;19.474;2022-12-18T02:48:34;95028.22;;;-9.91;75.93
75219;BME280;63801;49.414;19.474;2022-12-18T02:50:38;95009.69;;;-10.03;75.84
75219;BME280;63801;49.414;19.474;2022-12-18T02:53:17;95028.19;;;-9.97;75.86
75219;BME280;63801;49.414;19.474;2022-12-18T02:59:41;95030.31;;;-10.42;74.95
75219;BME280;63801;49.414;19.474;2022-12-18T03:01:51;95041.03;;;-10.52;75.41
75219;BME280;63801;49.414;19.474;2022-12-18T03:03:57;95036.38;;;-10.56;75.51
75219;BME280;63801;49.414;19.474;2022-12-18T03:06:07;95036.34;;;-10.63;75.60
75219;BME280;63801;49.414;19.474;2022-12-18T03:08:16;95039.94;;;-10.64;75.79
75219;BME280;63801;49.414;19.474;2022-12-18T03:10:24;95046.50;;;-10.68;75.77
75219;BME280;63801;49.414;19.474;2022-12-18T03:12:35;95045.28;;;-10.72;75.65
75219;BME280;63801;49.414;19.474;2022-12-18T03:14:38;95051.91;;;-10.69;75.75
75219;BME280;63801;49.414;19.474;2022-12-18T03:16:42;95056.59;;;-10.79;75.58
75219;BME280;63801;49.414;19.474;2022-12-18T03:18:54;95066.47;;;-10.75;75.75
75219;BME280;63801;49.414;19.474;2022-12-18T03:20:59;95065.22;;;-10.79;75.74
75219;BME280;63801;49.414;19.474;2022-12-18T03:23:09;95067.38;;;-10.82;75.78
75219;BME280;63801;49.414;19.474;2022-12-18T03:25:13;95072.41;;;-10.81;75.64
75219;BME280;63801;49.414;19.474;2022-12-18T03:27:18;95067.50;;;-10.90;75.76
75219;BME280;63801;49.414;19.474;2022-12-18T03:29:41;95077.13;;;-10.91;75.90
75219;BME280;63801;49.414;19.474;2022-12-18T03:31:47;95085.09;;;-10.93;75.79
75219;BME280;63801;49.414;19.474;2022-12-18T03:33:58;95076.59;;;-11.01;75.72
75219;BME280;63801;49.414;19.474;2022-12-18T03:36:00;95070.91;;;-11.11;75.84
75219;BME280;63801;49.414;19.474;2022-12-18T03:38:01;95076.72;;;-11.09;76.13
75219;BME280;63801;49.414;19.474;2022-12-18T03:40:02;95090.16;;;-11.06;75.90
75219;BME280;63801;49.414;19.474;2022-12-18T03:42:16;95079.69;;;-11.12;75.70
75219;BME280;63801;49.414;19.474;2022-12-18T03:44:31;95086.84;;;-11.14;75.90
75219;BME280;63801;49.414;19.474;2022-12-18T03:46:45;95103.53;;;-11.09;75.75
75219;BME280;63801;49.414;19.474;2022-12-18T03:48:52;95105.34;;;-11.09;76.09
75219;BME280;63801;49.414;19.474;2022-12-18T03:51:01;95097.25;;;-11.14;75.53
75219;BME280;63801;49.414;19.474;2022-12-18T03:53:37;95085.97;;;-11.21;75.71
75219;BME280;63801;49.414;19.474;2022-12-18T03:55:35;95088.75;;;-11.23;75.82
75219;BME280;63801;49.414;19.474;2022-12-18T03:57:36;95097.09;;;-11.27;76.10
75219;BME280;63801;49.414;19.474;2022-12-18T03:59:38;95099.09;;;-11.29;76.00
75219;BME280;63801;49.414;19.474;2022-12-18T04:01:43;95092.91;;;-11.28;75.96
75219;BME280;63801;49.414;19.474;2022-12-18T04:03:47;95104.47;;;-11.31;75.92
75219;BME280;63801;49.414;19.474;2022-12-18T04:05:51;95109.31;;;-11.28;75.98
75219;BME280;63801;49.414;19.474;2022-12-18T04:07:53;95100.25;;;-11.32;76.12
75219;BME280;63801;49.414;19.474;2022-12-18T04:09:55;95115.97;;;-11.25;76.21
75219;BME280;63801;49.414;19.474;2022-12-18T04:11:56;95105.81;;;-11.35;76.09
75219;BME280;63801;49.414;19.474;2022-12-18T04:13:57;95119.53;;;-11.26;76.08
75219;BME280;63801;49.414;19.474;2022-12-18T04:15:58;95128.16;;;-11.26;76.03
75219;BME280;63801;49.414;19.474;2022-12-18T04:17:58;95110.22;;;-11.35;75.94
75219;BME280;63801;49.414;19.474;2022-12-18T04:19:59;95118.28;;;-11.30;76.02
75219;BME280;63801;49.414;19.474;2022-12-18T04:21:59;95130.31;;;-11.29;76.17
75219;BME280;63801;49.414;19.474;2022-12-18T04:23:59;95120.19;;;-11.39;75.96
75219;BME280;63801;49.414;19.474;2022-12-18T04:26:00;95131.19;;;-11.37;76.00
75219;BME280;63801;49.414;19.474;2022-12-18T04:28:00;95135.78;;;-11.39;76.04
75219;BME280;63801;49.414;19.474;2022-12-18T04:30:00;95136.78;;;-11.40;76.00
75219;BME280;63801;49.414;19.474;2022-12-18T04:32:01;95140.09;;;-11.46;76.09
75219;BME280;63801;49.414;19.474;2022-12-18T04:34:01;95155.78;;;-11.40;76.07
75219;BME280;63801;49.414;19.474;2022-12-18T04:36:01;95140.09;;;-11.46;76.25
75219;BME280;63801;49.414;19.474;2022-12-18T04:38:02;95146.91;;;-11.45;76.07
75219;BME280;63801;49.414;19.474;2022-12-18T04:40:04;95138.03;;;-11.51;75.92
75219;BME280;63801;49.414;19.474;2022-12-18T04:42:04;95142.34;;;-11.43;76.14
75219;BME280;63801;49.414;19.474;2022-12-18T04:44:05;95138.22;;;-11.52;76.05
75219;BME280;63801;49.414;19.474;2022-12-18T04:46:06;95151.75;;;-11.42;76.08
75219;BME280;63801;49.414;19.474;2022-12-18T04:48:07;95148.88;;;-11.47;76.21
75219;BME280;63801;49.414;19.474;2022-12-18T04:50:07;95156.50;;;-11.46;76.13
75219;BME280;63801;49.414;19.474;2022-12-18T04:52:08;95141.19;;;-11.55;76.25
75219;BME280;63801;49.414;19.474;2022-12-18T04:54:08;95159.47;;;-11.49;76.60
75219;BME280;63801;49.414;19.474;2022-12-18T04:56:10;95175.41;;;-11.37;76.26
75219;BME280;63801;49.414;19.474;2022-12-18T04:58:11;95172.38;;;-11.41;76.47
75219;BME280;63801;49.414;19.474;2022-12-18T05:00:12;95174.88;;;-11.32;76.48
75219;BME280;63801;49.414;19.474;2022-12-18T05:02:12;95178.84;;;-11.22;76.46
75219;BME280;63801;49.414;19.474;2022-12-18T05:04:13;95169.69;;;-11.18;76.61
75219;BME280;63801;49.414;19.474;2022-12-18T05:06:13;95177.84;;;-11.06;76.62
75219;BME280;63801;49.414;19.474;2022-12-18T05:08:14;95177.06;;;-11.07;76.47
75219;BME280;63801;49.414;19.474;2022-12-18T05:10:14;95172.63;;;-11.06;76.55
75219;BME280;63801;49.414;19.474;2022-12-18T05:12:14;95184.50;;;-10.89;76.74
75219;BME280;63801;49.414;19.474;2022-12-18T05:14:15;95181.13;;;-10.83;76.72
75219;BME280;63801;49.414;19.474;2022-12-18T05:16:15;95167.31;;;-10.83;76.50
75219;BME280;63801;49.414;19.474;2022-12-18T05:18:15;95187.50;;;-10.71;76.41
75219;BME280;63801;49.414;19.474;2022-12-18T05:20:16;95185.97;;;-10.65;76.60
75219;BME280;63801;49.414;19.474;2022-12-18T05:22:16;95189.25;;;-10.57;76.63
75219;BME280;63801;49.414;19.474;2022-12-18T05:24:16;95193.38;;;-10.48;76.69
75219;BME280;63801;49.414;19.474;2022-12-18T05:26:17;95201.72;;;-10.37;76.55
75219;BME280;63801;49.414;19.474;2022-12-18T05:28:18;95201.97;;;-10.32;76.49
75219;BME280;63801;49.414;19.474;2022-12-18T05:30:18;95209.50;;;-10.23;76.45
75219;BME280;63801;49.414;19.474;2022-12-18T05:32:19;95199.72;;;-10.14;76.47
75219;BME280;63801;49.414;19.474;2022-12-18T05:34:19;95191.78;;;-10.06;76.51
75219;BME280;63801;49.414;19.474;2022-12-18T05:36:19;95201.09;;;-9.97;76.72
75219;BME280;63801;49.414;19.474;2022-12-18T05:38:21;95211.63;;;-9.84;77.05
75219;BME280;63801;49.414;19.474;2022-12-18T05:40:21;95198.44;;;-9.82;76.49
75219;BME280;63801;49.414;19.474;2022-12-18T05:42:22;95200.09;;;-9.75;76.47
75219;BME280;63801;49.414;19.474;2022-12-18T05:44:22;95209.41;;;-9.66;76.44
75219;BME280;63801;49.414;19.474;2022-12-18T05:46:22;95206.22;;;-9.61;76.41
75219;BME280;63801;49.414;19.474;2022-12-18T05:48:24;95216.69;;;-9.55;76.28
75219;BME280;63801;49.414;19.474;2022-12-18T05:50:24;95202.41;;;-9.59;76.33
75219;BME280;63801;49.414;19.474;2022-12-18T05:52:25;95220.78;;;-9.45;76.48
75219;BME280;63801;49.414;19.474;2022-12-18T05:54:27;95214.56;;;-9.44;76.27
75219;BME280;63801;49.414;19.474;2022-12-18T05:56:28;95193.84;;;-9.52;76.13
75219;BME280;63801;49.414;19.474;2022-12-18T05:58:28;95206.56;;;-9.43;76.29
75219;BME280;63801;49.414;19.474;2022-12-18T06:00:29;95226.31;;;-9.34;76.09
75219;BME280;63801;49.414;19.474;2022-12-18T06:02:30;95212.63;;;-9.36;76.11
75219;BME280;63801;49.414;19.474;2022-12-18T06:04:31;95205.38;;;-9.40;75.80
75219;BME280;63801;49.414;19.474;2022-12-18T06:06:31;95219.22;;;-9.40;75.90
75219;BME280;63801;49.414;19.474;2022-12-18T06:08:32;95227.31;;;-9.35;75.87
75219;BME280;63801;49.414;19.474;2022-12-18T06:10:32;95234.13;;;-9.34;75.94
75219;BME280;63801;49.414;19.474;2022-12-18T06:12:32;95235.97;;;-9.28;76.04
75219;BME280;63801;49.414;19.474;2022-12-18T06:14:35;95239.47;;;-9.21;75.86
75219;BME280;63801;49.414;19.474;2022-12-18T06:16:36;95239.00;;;-9.24;76.13
75219;BME280;63801;49.414;19.474;2022-12-18T06:18:36;95253.53;;;-9.15;75.90
75219;BME280;63801;49.414;19.474;2022-12-18T06:20:36;95258.50;;;-9.20;75.04
75219;BME280;63801;49.414;19.474;2022-12-18T06:22:39;95243.13;;;-9.36;75.45
75219;BME280;63801;49.414;19.474;2022-12-18T06:24:39;95267.88;;;-9.32;75.76
75219;BME280;63801;49.414;19.474;2022-12-18T06:26:40;95263.03;;;-9.35;75.65
75219;BME280;63801;49.414;19.474;2022-12-18T06:28:40;95256.56;;;-9.39;75.84
75219;BME280;63801;49.414;19.474;2022-12-18T06:30:45;95271.34;;;-9.25;75.79
75219;BME280;63801;49.414;19.474;2022-12-18T06:32:46;95263.28;;;-9.30;75.65
75219;BME280;63801;49.414;19.474;2022-12-18T06:34:47;95261.03;;;-9.33;75.82
75219;BME280;63801;49.414;19.474;2022-12-18T06:36:47;95271.16;;;-9.24;76.07
75219;BME280;63801;49.414;19.474;2022-12-18T06:38:48;95261.66;;;-9.31;75.89
75219;BME280;63801;49.414;19.474;2022-12-18T06:40:48;95274.19;;;-9.20;75.82
75219;BME280;63801;49.414;19.474;2022-12-18T06:42:49;95271.53;;;-9.27;75.48
75219;BME280;63801;49.414;19.474;2022-12-18T06:44:49;95283.22;;;-9.23;75.71
75219;BME280;63801;49.414;19.474;2022-12-18T06:46:49;95281.78;;;-9.25;76.02
75219;BME280;63801;49.414;19.474;2022-12-18T06:48:50;95270.28;;;-9.31;75.24
75219;BME280;63801;49.414;19.474;2022-12-18T06:50:50;95295.44;;;-9.23;75.79
75219;BME280;63801;49.414;19.474;2022-12-18T06:52:50;95293.47;;;-9.21;75.53
75219;BME280;63801;49.414;19.474;2022-12-18T06:54:51;95287.63;;;-9.23;76.07
75219;BME280;63801;49.414;19.474;2022-12-18T06:56:51;95291.69;;;-9.21;75.72
75219;BME280;63801;49.414;19.474;2022-12-18T06:58:52;95290.06;;;-9.22;75.58
75219;BME280;63801;49.414;19.474;2022-12-18T07:00:52;95296.94;;;-9.14;76.10
75219;BME280;63801;49.414;19.474;2022-12-18T07:02:53;95300.19;;;-9.12;76.05
75219;BME280;63801;49.414;19.474;2022-12-18T07:04:53;95297.78;;;-9.07;76.00
75219;BME280;63801;49.414;19.474;2022-12-18T07:06:53;95296.22;;;-9.01;75.95
75219;BME280;63801;49.414;19.474;2022-12-18T07:08:54;95308.34;;;-8.94;75.84
75219;BME280;63801;49.414;19.474;2022-12-18T07:10:55;95301.94;;;-8.91;76.14
75219;BME280;63801;49.414;19.474;2022-12-18T07:12:55;95306.81;;;-8.82;76.04
75219;BME280;63801;49.414;19.474;2022-12-18T07:14:56;95309.22;;;-8.80;75.88
75219;BME280;63801;49.414;19.474;2022-12-18T07:16:56;95303.22;;;-8.81;76.10
75219;BME280;63801;49.414;19.474;2022-12-18T07:18:56;95321.63;;;-8.61;76.16
75219;BME280;63801;49.414;19.474;2022-12-18T07:20:57;95329.53;;;-8.54;76.12
75219;BME280;63801;49.414;19.474;2022-12-18T07:22:57;95323.09;;;-8.52;76.00
75219;BME280;63801;49.414;19.474;2022-12-18T07:24:57;95320.47;;;-8.52;75.93
75219;BME280;63801;49.414;19.474;2022-12-18T07:26:58;95337.81;;;-8.44;75.70
75219;BME280;63801;49.414;19.474;2022-12-18T07:28:59;95348.88;;;-8.42;75.68
75219;BME280;63801;49.414;19.474;2022-12-18T07:31:12;95352.56;;;-8.37;75.90
75219;BME280;63801;49.414;19.474;2022-12-18T07:33:12;95352.97;;;-8.27;76.11
75219;BME280;63801;49.414;19.474;2022-12-18T07:35:12;95336.47;;;-8.27;76.08
75219;BME280;63801;49.414;19.474;2022-12-18T07:37:14;95347.22;;;-8.09;76.30
75219;BME280;63801;49.414;19.474;2022-12-18T07:39:14;95353.53;;;-7.97;76.44
75219;BME280;63801;49.414;19.474;2022-12-18T07:41:15;95339.25;;;-7.94;76.14
75219;BME280;63801;49.414;19.474;2022-12-18T07:43:15;95341.91;;;-7.88;75.91
75219;BME280;63801;49.414;19.474;2022-12-18T07:45:15;95336.25;;;-7.85;76.10
75219;BME280;63801;49.414;19.474;2022-12-18T07:47:16;95347.19;;;-7.75;75.80
75219;BME280;63801;49.414;19.474;2022-12-18T07:49:16;95342.53;;;-7.73;75.96
75219;BME280;63801;49.414;19.474;2022-12-18T07:51:17;95341.13;;;-7.68;75.96
75219;BME280;63801;49.414;19.474;2022-12-18T07:53:18;95348.44;;;-7.57;75.95
75219;BME280;63801;49.414;19.474;2022-12-18T07:55:18;95327.47;;;-7.64;75.76
75219;BME280;63801;49.414;19.474;2022-12-18T07:57:19;95349.25;;;-7.57;75.61
75219;BME280;63801;49.414;19.474;2022-12-18T07:59:19;95355.84;;;-7.61;75.25
75219;BME280;63801;49.414;19.474;2022-12-18T08:01:19;95364.28;;;-7.65;75.09
75219;BME280;63801;49.414;19.474;2022-12-18T08:03:20;95362.09;;;-7.68;75.42
75219;BME280;63801;49.414;19.474;2022-12-18T08:05:20;95352.59;;;-7.69;75.76
75219;BME280;63801;49.414;19.474;2022-12-18T08:07:20;95360.31;;;-7.61;75.49
75219;BME280;63801;49.414;19.474;2022-12-18T08:09:21;95358.69;;;-7.62;74.93
75219;BME280;63801;49.414;19.474;2022-12-18T08:11:23;95371.78;;;-7.62;74.82
75219;BME280;63801;49.414;19.474;2022-12-18T08:13:24;95377.38;;;-7.72;74.63
75219;BME280;63801;49.414;19.474;2022-12-18T08:15:24;95376.34;;;-7.78;74.91
75219;BME280;63801;49.414;19.474;2022-12-18T08:17:24;95368.06;;;-7.88;75.00
75219;BME280;63801;49.414;19.474;2022-12-18T08:19:25;95365.81;;;-7.91;75.03
75219;BME280;63801;49.414;19.474;2022-12-18T08:21:28;95367.03;;;-7.93;75.21
75219;BME280;63801;49.414;19.474;2022-12-18T08:23:28;95358.38;;;-7.94;75.27
75219;BME280;63801;49.414;19.474;2022-12-18T08:25:28;95368.06;;;-7.88;75.25
75219;BME280;63801;49.414;19.474;2022-12-18T08:27:29;95378.13;;;-7.85;75.53
75219;BME280;63801;49.414;19.474;2022-12-18T08:29:29;95376.34;;;-7.78;75.66
75219;BME280;63801;49.414;19.474;2022-12-18T08:31:30;95392.72;;;-7.62;75.55
75219;BME280;63801;49.414;19.474;2022-12-18T08:33:31;95387.25;;;-7.61;75.38
75219;BME280;63801;49.414;19.474;2022-12-18T08:35:35;95388.13;;;-7.54;75.39
75219;BME280;63801;49.414;19.474;2022-12-18T08:37:36;95369.75;;;-7.60;75.06
75219;BME280;63801;49.414;19.474;2022-12-18T08:39:36;95391.16;;;-7.50;75.56
75219;BME280;63801;49.414;19.474;2022-12-18T08:41:37;95385.31;;;-7.52;75.31
75219;BME280;63801;49.414;19.474;2022-12-18T08:43:37;95390.38;;;-7.44;75.43
75219;BME280;63801;49.414;19.474;2022-12-18T08:45:56;95382.91;;;-7.41;75.57
75219;BME280;63801;49.414;19.474;2022-12-18T08:47:57;95384.94;;;-7.36;75.27
75219;BME280;63801;49.414;19.474;2022-12-18T08:49:57;95390.19;;;-7.36;75.30
75219;BME280;63801;49.414;19.474;2022-12-18T08:51:57;95390.78;;;-7.34;75.26
75219;BME280;63801;49.414;19.474;2022-12-18T08:53:58;95399.25;;;-7.26;75.52
75219;BME280;63801;49.414;19.474;2022-12-18T08:55:58;95394.84;;;-7.25;75.17
75219;BME280;63801;49.414;19.474;2022-12-18T08:57:58;95402.53;;;-7.17;75.53
75219;BME280;63801;49.414;19.474;2022-12-18T08:59:58;95402.31;;;-7.15;75.51
75219;BME280;63801;49.414;19.474;2022-12-18T09:01:59;95416.66;;;-6.98;75.91
75219;BME280;63801;49.414;19.474;2022-12-18T09:03:59;95410.63;;;-6.86;75.90
75219;BME280;63801;49.414;19.474;2022-12-18T09:05:59;95405.00;;;-6.76;75.83
75219;BME280;63801;49.414;19.474;2022-12-18T09:08:00;95406.22;;;-6.65;75.86
75219;BME280;63801;49.414;19.474;2022-12-18T09:10:00;95398.16;;;-6.64;75.51
75219;BME280;63801;49.414;19.474;2022-12-18T09:12:00;95394.31;;;-6.61;75.71
75219;BME280;63801;49.414;19.474;2022-12-18T09:14:01;95399.78;;;-6.56;75.21
75219;BME280;63801;49.414;19.474;2022-12-18T09:16:03;95399.97;;;-6.51;75.20
75219;BME280;63801;49.414;19.474;2022-12-18T09:18:03;95397.34;;;-6.45;75.39
75219;BME280;63801;49.414;19.474;2022-12-18T09:20:04;95405.81;;;-6.36;75.38
75219;BME280;63801;49.414;19.474;2022-12-18T09:22:05;95411.66;;;-6.21;75.52
75219;BME280;63801;49.414;19.474;2022-12-18T09:24:05;95397.34;;;-6.25;75.17
75219;BME280;63801;49.414;19.474;2022-12-18T09:26:06;95410.81;;;-6.15;75.04
75219;BME280;63801;49.414;19.474;2022-12-18T09:28:10;95403.38;;;-6.18;75.39
75219;BME280;63801;49.414;19.474;2022-12-18T09:30:11;95412.22;;;-6.06;75.22
75219;BME280;63801;49.414;19.474;2022-12-18T09:32:12;95414.25;;;-5.95;75.26
75219;BME280;63801;49.414;19.474;2022-12-18T09:34:12;95416.03;;;-5.88;75.19
75219;BME280;63801;49.414;19.474;2022-12-18T09:36:15;95421.03;;;-5.80;75.00
75219;BME280;63801;49.414;19.474;2022-12-18T09:38:18;95413.38;;;-5.82;74.87
75219;BME280;63801;49.414;19.474;2022-12-18T09:40:22;95416.97;;;-5.70;74.75
75219;BME280;63801;49.414;19.474;2022-12-18T09:42:23;95401.81;;;-5.74;74.56
75219;BME280;63801;49.414;19.474;2022-12-18T09:44:44;95415.94;;;-5.62;74.79
75219;BME280;63801;49.414;19.474;2022-12-18T09:47:03;95397.16;;;-5.66;74.51
75219;BME280;63801;49.414;19.474;2022-12-18T09:49:10;95409.25;;;-5.58;74.45
75219;BME280;63801;49.414;19.474;2022-12-18T09:51:17;95407.84;;;-5.54;74.47
75219;BME280;63801;49.414;19.474;2022-12-18T09:53:22;95427.78;;;-5.40;74.56
75219;BME280;63801;49.414;19.474;2022-12-18T09:55:35;95424.50;;;-5.35;74.48
75219;BME280;63801;49.414;19.474;2022-12-18T09:57:42;95414.81;;;-5.35;74.22
75219;BME280;63801;49.414;19.474;2022-12-18T10:04:16;95418.00;;;-5.26;73.99
75219;BME280;63801;49.414;19.474;2022-12-18T10:06:31;95426.47;;;-5.18;74.44
75219;BME280;63801;49.414;19.474;2022-12-18T10:10:52;95427.00;;;-5.03;74.21
75219;BME280;63801;49.414;19.474;2022-12-18T10:17:58;95429.03;;;-5.49;72.35
75219;BME280;63801;49.414;19.474;2022-12-18T10:20:16;95416.09;;;-5.57;73.09
75219;BME280;63801;49.414;19.474;2022-12-18T10:27:15;95421.25;;;-5.31;74.05
75219;BME280;63801;49.414;19.474;2022-12-18T10:29:16;95414.16;;;-5.24;74.27
75219;BME280;63801;49.414;19.474;2022-12-18T10:31:20;95424.78;;;-5.06;74.45
75219;BME280;63801;49.414;19.474;2022-12-18T10:33:24;95416.03;;;-5.00;74.03
75219;BME280;63801;49.414;19.474;2022-12-18T10:35:26;95410.94;;;-4.88;74.12
75219;BME280;63801;49.414;19.474;2022-12-18T10:37:28;95406.22;;;-4.79;73.79
75219;BME280;63801;49.414;19.474;2022-12-18T10:39:29;95396.72;;;-4.80;73.30
75219;BME280;63801;49.414;19.474;2022-12-18T10:41:29;95398.34;;;-4.79;73.42
75219;BME280;63801;49.414;19.474;2022-12-18T10:43:33;95394.69;;;-4.78;73.28
75219;BME280;63801;49.414;19.474;2022-12-18T10:45:33;95401.56;;;-4.77;72.55
75219;BME280;63801;49.414;19.474;2022-12-18T10:47:35;95393.53;;;-4.89;72.56
75219;BME280;63801;49.414;19.474;2022-12-18T10:49:47;95389.56;;;-4.98;72.24
75219;BME280;63801;49.414;19.474;2022-12-18T10:51:48;95398.88;;;-5.02;72.66
75219;BME280;63801;49.414;19.474;2022-12-18T10:53:58;95407.59;;;-5.08;72.24
75219;BME280;63801;49.414;19.474;2022-12-18T10:55:59;95399.78;;;-5.15;72.77
75219;BME280;63801;49.414;19.474;2022-12-18T10:58:37;95390.25;;;-5.16;71.90
75219;BME280;63801;49.414;19.474;2022-12-18T11:00:36;95381.22;;;-5.26;72.56
75219;BME280;63801;49.414;19.474;2022-12-18T11:02:38;95374.13;;;-5.26;73.12
75219;BME280;63801;49.414;19.474;2022-12-18T11:04:50;95382.84;;;-5.25;71.85
75219;BME280;63801;49.414;19.474;2022-12-18T11:07:04;95380.44;;;-5.27;72.50
75219;BME280;63801;49.414;19.474;2022-12-18T11:09:19;95370.38;;;-5.36;72.84
75219;BME280;63801;49.414;19.474;2022-12-18T11:11:22;95377.19;;;-5.22;73.29
75219;BME280;63801;49.414;19.474;2022-12-18T11:13:25;95365.81;;;-5.16;73.40
75219;BME280;63801;49.414;19.474;2022-12-18T11:15:29;95379.09;;;-5.05;73.09